sensor_id;sensor_type;location;lat;lon;timestamp;P1;durP1;ratioP1;P2;durP2;ratioP2
11427;SDS011;5770;44.504;11.346;2023-01-24T00:02:34;3.88;;;3.50;;
11427;SDS011;5770;44.504;11.346;2023-01-24T00:05:04;6.25;;;3.63;;
11427;SDS011;5770;44.504;11.346;2023-01-24T00:07:31;4.80;;;3.83;;
11427;SDS011;5770;44.504;11.346;2023-01-24T00:09:59;4.40;;;4.00;;
11427;SDS011;5770;44.504;11.346;2023-01-24T00:12:30;4.50;;;4.10;;
11427;SDS011;5770;44.504;11.346;2023-01-24T00:14:59;3.85;;;3.55;;
11427;SDS011;5770;44.504;11.346;2023-01-24T00:17:28;4.32;;;3.92;;
11427;SDS011;5770;44.504;11.346;2023-01-24T00:19:59;4.00;;;3.70;;
11427;SDS011;5770;44.504;11.346;2023-01-24T00:22:36;4.07;;;3.65;;
11427;SDS011;5770;44.504;11.346;2023-01-24T00:25:04;4.40;;;4.00;;
11427;SDS011;5770;44.504;11.346;2023-01-24T00:27:41;4.18;;;3.80;;
11427;SDS011;5770;44.504;11.346;2023-01-24T00:30:09;3.72;;;3.42;;
11427;SDS011;5770;44.504;11.346;2023-01-24T00:32:41;4.18;;;3.78;;
11427;SDS011;5770;44.504;11.346;2023-01-24T00:35:20;4.30;;;3.90;;
11427;SDS011;5770;44.504;11.346;2023-01-24T00:37:49;4.18;;;3.78;;
11427;SDS011;5770;44.504;11.346;2023-01-24T00:40:16;4.25;;;3.95;;
11427;SDS011;5770;44.504;11.346;2023-01-24T00:42:44;4.53;;;3.80;;
11427;SDS011;5770;44.504;11.346;2023-01-24T00:45:14;4.13;;;3.70;;
11427;SDS011;5770;44.504;11.346;2023-01-24T00:47:42;3.78;;;3.45;;
11427;SDS011;5770;44.504;11.346;2023-01-24T00:52:42;3.78;;;3.47;;
11427;SDS011;5770;44.504;11.346;2023-01-24T00:55:17;3.60;;;3.30;;
11427;SDS011;5770;44.504;11.346;2023-01-24T00:57:54;3.67;;;3.38;;
11427;SDS011;5770;44.504;11.346;2023-01-24T01:00:53;4.13;;;3.55;;
11427;SDS011;5770;44.504;11.346;2023-01-24T01:03:41;4.65;;;3.50;;
11427;SDS011;5770;44.504;11.346;2023-01-24T01:06:09;4.13;;;3.72;;
11427;SDS011;5770;44.504;11.346;2023-01-24T01:08:47;3.80;;;3.50;;
11427;SDS011;5770;44.504;11.346;2023-01-24T01:11:19;3.90;;;3.50;;
11427;SDS011;5770;44.504;11.346;2023-01-24T01:13:48;3.90;;;3.50;;
11427;SDS011;5770;44.504;11.346;2023-01-24T01:16:16;4.25;;;3.88;;
11427;SDS011;5770;44.504;11.346;2023-01-24T01:18:44;3.90;;;3.60;;
11427;SDS011;5770;44.504;11.346;2023-01-24T01:21:12;4.40;;;4.00;;
11427;SDS011;5770;44.504;11.346;2023-01-24T01:23:48;3.85;;;3.55;;
11427;SDS011;5770;44.504;11.346;2023-01-24T01:26:20;4.63;;;4.15;;
11427;SDS011;5770;44.504;11.346;2023-01-24T01:28:47;4.38;;;3.97;;
11427;SDS011;5770;44.504;11.346;2023-01-24T01:31:15;4.43;;;4.03;;
11427;SDS011;5770;44.504;11.346;2023-01-24T01:33:43;4.30;;;3.90;;
11427;SDS011;5770;44.504;11.346;2023-01-24T01:36:10;3.67;;;3.38;;
11427;SDS011;5770;44.504;11.346;2023-01-24T01:38:41;4.47;;;4.07;;
11427;SDS011;5770;44.504;11.346;2023-01-24T01:41:09;4.30;;;4.00;;
11427;SDS011;5770;44.504;11.346;2023-01-24T01:43:37;4.43;;;4.03;;
11427;SDS011;5770;44.504;11.346;2023-01-24T01:46:30;4.18;;;3.85;;
11427;SDS011;5770;44.504;11.346;2023-01-24T01:49:14;4.20;;;3.80;;
11427;SDS011;5770;44.504;11.346;2023-01-24T01:51:44;4.38;;;3.97;;
11427;SDS011;5770;44.504;11.346;2023-01-24T01:54:14;4.57;;;4.18;;
11427;SDS011;5770;44.504;11.346;2023-01-24T01:56:42;4.80;;;4.30;;
11427;SDS011;5770;44.504;11.346;2023-01-24T01:59:12;5.10;;;4.13;;
11427;SDS011;5770;44.504;11.346;2023-01-24T02:01:43;4.50;;;4.10;;
11427;SDS011;5770;44.504;11.346;2023-01-24T02:04:14;5.10;;;4.35;;
11427;SDS011;5770;44.504;11.346;2023-01-24T02:06:48;7.18;;;4.13;;
11427;SDS011;5770;44.504;11.346;2023-01-24T02:09:18;5.43;;;4.20;;
11427;SDS011;5770;44.504;11.346;2023-01-24T02:11:48;4.60;;;4.13;;
11427;SDS011;5770;44.504;11.346;2023-01-24T02:14:17;4.30;;;4.00;;
11427;SDS011;5770;44.504;11.346;2023-01-24T02:17:02;4.80;;;4.30;;
11427;SDS011;5770;44.504;11.346;2023-01-24T02:19:35;4.50;;;4.10;;
11427;SDS011;5770;44.504;11.346;2023-01-24T02:22:12;4.53;;;4.13;;
11427;SDS011;5770;44.504;11.346;2023-01-24T02:24:44;5.00;;;4.50;;
11427;SDS011;5770;44.504;11.346;2023-01-24T02:27:14;7.68;;;4.47;;
11427;SDS011;5770;44.504;11.346;2023-01-24T02:29:51;5.50;;;4.40;;
11427;SDS011;5770;44.504;11.346;2023-01-24T02:32:18;4.85;;;4.45;;
11427;SDS011;5770;44.504;11.346;2023-01-24T02:34:46;4.75;;;4.18;;
11427;SDS011;5770;44.504;11.346;2023-01-24T02:37:14;5.78;;;4.63;;
11427;SDS011;5770;44.504;11.346;2023-01-24T02:39:45;5.22;;;4.72;;
11427;SDS011;5770;44.504;11.346;2023-01-24T02:42:13;5.13;;;4.60;;
11427;SDS011;5770;44.504;11.346;2023-01-24T02:44:44;5.13;;;4.60;;
11427;SDS011;5770;44.504;11.346;2023-01-24T02:47:12;4.50;;;4.10;;
11427;SDS011;5770;44.504;11.346;2023-01-24T02:49:40;4.60;;;4.20;;
11427;SDS011;5770;44.504;11.346;2023-01-24T02:52:08;5.05;;;4.57;;
11427;SDS011;5770;44.504;11.346;2023-01-24T02:54:53;4.55;;;4.18;;
11427;SDS011;5770;44.504;11.346;2023-01-24T02:57:20;4.80;;;4.40;;
11427;SDS011;5770;44.504;11.346;2023-01-24T03:00:07;4.90;;;4.50;;
11427;SDS011;5770;44.504;11.346;2023-01-24T03:02:37;5.22;;;4.22;;
11427;SDS011;5770;44.504;11.346;2023-01-24T03:05:05;5.50;;;4.93;;
11427;SDS011;5770;44.504;11.346;2023-01-24T03:07:33;5.28;;;4.75;;
11427;SDS011;5770;44.504;11.346;2023-01-24T03:10:09;5.22;;;4.72;;
11427;SDS011;5770;44.504;11.346;2023-01-24T03:12:37;5.10;;;4.57;;
11427;SDS011;5770;44.504;11.346;2023-01-24T03:15:25;4.78;;;4.38;;
11427;SDS011;5770;44.504;11.346;2023-01-24T03:18:12;6.10;;;4.75;;
11427;SDS011;5770;44.504;11.346;2023-01-24T03:20:57;4.85;;;4.45;;
11427;SDS011;5770;44.504;11.346;2023-01-24T03:23:42;5.82;;;5.13;;
11427;SDS011;5770;44.504;11.346;2023-01-24T03:26:27;5.05;;;4.63;;
11427;SDS011;5770;44.504;11.346;2023-01-24T03:29:12;5.13;;;4.68;;
11427;SDS011;5770;44.504;11.346;2023-01-24T03:32:02;5.80;;;4.68;;
11427;SDS011;5770;44.504;11.346;2023-01-24T03:34:47;4.68;;;4.28;;
11427;SDS011;5770;44.504;11.346;2023-01-24T03:40:15;5.20;;;4.70;;
11427;SDS011;5770;44.504;11.346;2023-01-24T03:42:42;4.40;;;4.10;;
11427;SDS011;5770;44.504;11.346;2023-01-24T03:45:13;4.85;;;4.45;;
11427;SDS011;5770;44.504;11.346;2023-01-24T03:47:43;5.05;;;4.07;;
11427;SDS011;5770;44.504;11.346;2023-01-24T03:50:11;4.85;;;4.35;;
11427;SDS011;5770;44.504;11.346;2023-01-24T03:55:56;4.90;;;4.38;;
11427;SDS011;5770;44.504;11.346;2023-01-24T03:58:40;4.80;;;4.30;;
11427;SDS011;5770;44.504;11.346;2023-01-24T04:01:08;4.78;;;4.35;;
11427;SDS011;5770;44.504;11.346;2023-01-24T04:03:36;4.63;;;4.22;;
11427;SDS011;5770;44.504;11.346;2023-01-24T04:06:14;4.28;;;3.88;;
11427;SDS011;5770;44.504;11.346;2023-01-24T04:08:58;4.50;;;4.05;;
11427;SDS011;5770;44.504;11.346;2023-01-24T04:11:25;4.88;;;4.47;;
11427;SDS011;5770;44.504;11.346;2023-01-24T04:13:52;4.88;;;4.47;;
11427;SDS011;5770;44.504;11.346;2023-01-24T04:16:19;4.72;;;4.15;;
11427;SDS011;5770;44.504;11.346;2023-01-24T04:18:47;4.43;;;4.03;;
11427;SDS011;5770;44.504;11.346;2023-01-24T04:21:15;5.10;;;4.60;;
11427;SDS011;5770;44.504;11.346;2023-01-24T04:23:42;4.50;;;4.10;;
11427;SDS011;5770;44.504;11.346;2023-01-24T04:26:09;5.05;;;4.10;;
11427;SDS011;5770;44.504;11.346;2023-01-24T04:28:36;4.97;;;4.38;;
11427;SDS011;5770;44.504;11.346;2023-01-24T04:31:03;4.40;;;4.00;;
11427;SDS011;5770;44.504;11.346;2023-01-24T04:33:30;4.70;;;4.30;;
11427;SDS011;5770;44.504;11.346;2023-01-24T04:35:58;5.07;;;4.30;;
11427;SDS011;5770;44.504;11.346;2023-01-24T04:38:26;5.07;;;4.57;;
11427;SDS011;5770;44.504;11.346;2023-01-24T04:40:57;6.93;;;4.22;;
11427;SDS011;5770;44.504;11.346;2023-01-24T04:43:24;4.35;;;3.95;;
11427;SDS011;5770;44.504;11.346;2023-01-24T04:45:54;4.63;;;4.22;;
11427;SDS011;5770;44.504;11.346;2023-01-24T04:48:21;4.72;;;4.32;;
11427;SDS011;5770;44.504;11.346;2023-01-24T04:50:49;4.50;;;4.10;;
11427;SDS011;5770;44.504;11.346;2023-01-24T04:53:17;4.25;;;3.85;;
11427;SDS011;5770;44.504;11.346;2023-01-24T04:55:44;5.00;;;4.50;;
11427;SDS011;5770;44.504;11.346;2023-01-24T04:58:11;4.72;;;4.32;;
11427;SDS011;5770;44.504;11.346;2023-01-24T05:00:38;4.88;;;4.47;;
11427;SDS011;5770;44.504;11.346;2023-01-24T05:03:05;4.78;;;4.25;;
11427;SDS011;5770;44.504;11.346;2023-01-24T05:05:32;4.70;;;4.25;;
11427;SDS011;5770;44.504;11.346;2023-01-24T05:07:59;4.20;;;3.90;;
11427;SDS011;5770;44.504;11.346;2023-01-24T05:10:28;4.88;;;4.38;;
11427;SDS011;5770;44.504;11.346;2023-01-24T05:12:55;4.80;;;4.40;;
11427;SDS011;5770;44.504;11.346;2023-01-24T05:15:22;4.60;;;4.20;;
11427;SDS011;5770;44.504;11.346;2023-01-24T05:17:51;5.03;;;4.47;;
11427;SDS011;5770;44.504;11.346;2023-01-24T05:20:18;5.47;;;4.53;;
11427;SDS011;5770;44.504;11.346;2023-01-24T05:22:45;5.75;;;4.25;;
11427;SDS011;5770;44.504;11.346;2023-01-24T05:25:14;4.70;;;4.30;;
11427;SDS011;5770;44.504;11.346;2023-01-24T05:27:45;4.72;;;4.15;;
11427;SDS011;5770;44.504;11.346;2023-01-24T05:30:13;4.75;;;4.35;;
11427;SDS011;5770;44.504;11.346;2023-01-24T05:32:40;4.93;;;4.53;;
11427;SDS011;5770;44.504;11.346;2023-01-24T05:35:08;4.75;;;4.35;;
11427;SDS011;5770;44.504;11.346;2023-01-24T05:37:36;5.65;;;4.47;;
11427;SDS011;5770;44.504;11.346;2023-01-24T05:40:04;4.65;;;4.25;;
11427;SDS011;5770;44.504;11.346;2023-01-24T05:42:32;5.45;;;4.57;;
11427;SDS011;5770;44.504;11.346;2023-01-24T05:45:01;4.60;;;4.20;;
11427;SDS011;5770;44.504;11.346;2023-01-24T05:47:28;5.15;;;4.30;;
11427;SDS011;5770;44.504;11.346;2023-01-24T05:49:55;5.30;;;4.80;;
11427;SDS011;5770;44.504;11.346;2023-01-24T05:52:22;5.47;;;4.90;;
11427;SDS011;5770;44.504;11.346;2023-01-24T05:54:49;5.10;;;4.60;;
11427;SDS011;5770;44.504;11.346;2023-01-24T05:57:17;6.07;;;4.30;;
11427;SDS011;5770;44.504;11.346;2023-01-24T05:59:44;4.88;;;4.47;;
11427;SDS011;5770;44.504;11.346;2023-01-24T06:02:13;5.32;;;4.47;;
11427;SDS011;5770;44.504;11.346;2023-01-24T06:04:42;5.30;;;4.80;;
11427;SDS011;5770;44.504;11.346;2023-01-24T06:07:09;4.80;;;4.40;;
11427;SDS011;5770;44.504;11.346;2023-01-24T06:09:37;5.18;;;4.78;;
11427;SDS011;5770;44.504;11.346;2023-01-24T06:12:05;6.75;;;4.50;;
11427;SDS011;5770;44.504;11.346;2023-01-24T06:14:32;5.38;;;4.78;;
11427;SDS011;5770;44.504;11.346;2023-01-24T06:16:59;5.18;;;4.68;;
11427;SDS011;5770;44.504;11.346;2023-01-24T06:19:29;5.15;;;4.65;;
11427;SDS011;5770;44.504;11.346;2023-01-24T06:21:57;4.90;;;4.40;;
11427;SDS011;5770;44.504;11.346;2023-01-24T06:24:29;4.80;;;4.35;;
11427;SDS011;5770;44.504;11.346;2023-01-24T06:26:57;5.15;;;4.50;;
11427;SDS011;5770;44.504;11.346;2023-01-24T06:29:24;5.50;;;4.65;;
11427;SDS011;5770;44.504;11.346;2023-01-24T06:31:56;4.68;;;4.28;;
11427;SDS011;5770;44.504;11.346;2023-01-24T06:34:30;4.85;;;4.45;;
11427;SDS011;5770;44.504;11.346;2023-01-24T06:37:02;4.70;;;4.30;;
11427;SDS011;5770;44.504;11.346;2023-01-24T06:39:31;7.10;;;4.90;;
11427;SDS011;5770;44.504;11.346;2023-01-24T06:42:00;6.00;;;4.55;;
11427;SDS011;5770;44.504;11.346;2023-01-24T06:44:28;5.65;;;4.88;;
11427;SDS011;5770;44.504;11.346;2023-01-24T06:46:55;4.95;;;4.55;;
11427;SDS011;5770;44.504;11.346;2023-01-24T06:49:22;7.75;;;4.70;;
11427;SDS011;5770;44.504;11.346;2023-01-24T06:51:51;6.97;;;4.80;;
11427;SDS011;5770;44.504;11.346;2023-01-24T06:54:18;5.05;;;4.30;;
11427;SDS011;5770;44.504;11.346;2023-01-24T06:56:46;6.35;;;5.10;;
11427;SDS011;5770;44.504;11.346;2023-01-24T06:59:13;9.20;;;5.30;;
11427;SDS011;5770;44.504;11.346;2023-01-24T07:01:40;7.00;;;5.25;;
11427;SDS011;5770;44.504;11.346;2023-01-24T07:04:07;7.10;;;5.35;;
11427;SDS011;5770;44.504;11.346;2023-01-24T07:06:35;6.75;;;5.65;;
11427;SDS011;5770;44.504;11.346;2023-01-24T07:09:03;6.07;;;5.47;;
11427;SDS011;5770;44.504;11.346;2023-01-24T07:11:30;6.55;;;5.70;;
11427;SDS011;5770;44.504;11.346;2023-01-24T07:13:57;8.10;;;5.80;;
11427;SDS011;5770;44.504;11.346;2023-01-24T07:16:25;6.38;;;5.78;;
11427;SDS011;5770;44.504;11.346;2023-01-24T07:18:52;7.85;;;6.28;;
11427;SDS011;5770;44.504;11.346;2023-01-24T07:21:20;8.32;;;6.15;;
11427;SDS011;5770;44.504;11.346;2023-01-24T07:23:48;8.30;;;6.00;;
11427;SDS011;5770;44.504;11.346;2023-01-24T07:26:17;6.63;;;6.00;;
11427;SDS011;5770;44.504;11.346;2023-01-24T07:28:45;10.05;;;6.90;;
11427;SDS011;5770;44.504;11.346;2023-01-24T07:31:12;8.23;;;6.40;;
11427;SDS011;5770;44.504;11.346;2023-01-24T07:33:41;10.27;;;6.45;;
11427;SDS011;5770;44.504;11.346;2023-01-24T07:36:12;10.90;;;7.18;;
11427;SDS011;5770;44.504;11.346;2023-01-24T07:38:39;8.23;;;6.65;;
11427;SDS011;5770;44.504;11.346;2023-01-24T07:41:07;8.85;;;7.18;;
11427;SDS011;5770;44.504;11.346;2023-01-24T07:43:35;8.73;;;6.90;;
11427;SDS011;5770;44.504;11.346;2023-01-24T07:46:02;8.77;;;7.13;;
11427;SDS011;5770;44.504;11.346;2023-01-24T07:48:29;10.27;;;7.00;;
11427;SDS011;5770;44.504;11.346;2023-01-24T07:50:57;9.25;;;7.05;;
11427;SDS011;5770;44.504;11.346;2023-01-24T07:53:25;9.90;;;7.35;;
11427;SDS011;5770;44.504;11.346;2023-01-24T07:55:52;12.23;;;8.02;;
11427;SDS011;5770;44.504;11.346;2023-01-24T07:58:21;9.27;;;7.38;;
11427;SDS011;5770;44.504;11.346;2023-01-24T08:00:50;10.68;;;8.32;;
11427;SDS011;5770;44.504;11.346;2023-01-24T08:03:17;12.63;;;7.97;;
11427;SDS011;5770;44.504;11.346;2023-01-24T08:05:45;8.02;;;7.22;;
11427;SDS011;5770;44.504;11.346;2023-01-24T08:08:12;10.88;;;7.70;;
11427;SDS011;5770;44.504;11.346;2023-01-24T08:10:39;10.38;;;7.82;;
11427;SDS011;5770;44.504;11.346;2023-01-24T08:13:05;12.20;;;7.72;;
11427;SDS011;5770;44.504;11.346;2023-01-24T08:15:32;8.63;;;7.70;;
11427;SDS011;5770;44.504;11.346;2023-01-24T08:18:02;10.13;;;8.13;;
11427;SDS011;5770;44.504;11.346;2023-01-24T08:20:29;9.43;;;7.70;;
11427;SDS011;5770;44.504;11.346;2023-01-24T08:22:57;10.25;;;8.45;;
11427;SDS011;5770;44.504;11.346;2023-01-24T08:25:24;8.93;;;7.75;;
11427;SDS011;5770;44.504;11.346;2023-01-24T08:27:51;9.30;;;8.00;;
11427;SDS011;5770;44.504;11.346;2023-01-24T08:30:19;11.18;;;8.77;;
11427;SDS011;5770;44.504;11.346;2023-01-24T08:32:46;10.60;;;7.82;;
11427;SDS011;5770;44.504;11.346;2023-01-24T08:35:15;13.35;;;8.05;;
11427;SDS011;5770;44.504;11.346;2023-01-24T08:37:43;11.25;;;8.15;;
11427;SDS011;5770;44.504;11.346;2023-01-24T08:40:10;12.15;;;8.40;;
11427;SDS011;5770;44.504;11.346;2023-01-24T08:42:38;10.07;;;8.60;;
11427;SDS011;5770;44.504;11.346;2023-01-24T08:45:05;10.52;;;9.18;;
11427;SDS011;5770;44.504;11.346;2023-01-24T08:47:32;13.52;;;9.43;;
11427;SDS011;5770;44.504;11.346;2023-01-24T08:50:00;10.00;;;9.00;;
11427;SDS011;5770;44.504;11.346;2023-01-24T08:52:28;11.25;;;8.95;;
11427;SDS011;5770;44.504;11.346;2023-01-24T08:54:55;12.82;;;8.98;;
11427;SDS011;5770;44.504;11.346;2023-01-24T08:57:23;13.38;;;10.05;;
11427;SDS011;5770;44.504;11.346;2023-01-24T08:59:52;16.65;;;10.55;;
11427;SDS011;5770;44.504;11.346;2023-01-24T09:02:19;13.35;;;10.43;;
11427;SDS011;5770;44.504;11.346;2023-01-24T09:04:46;16.65;;;10.63;;
11427;SDS011;5770;44.504;11.346;2023-01-24T09:07:13;13.85;;;10.90;;
11427;SDS011;5770;44.504;11.346;2023-01-24T09:09:45;17.35;;;11.35;;
11427;SDS011;5770;44.504;11.346;2023-01-24T09:12:12;15.88;;;11.63;;
11427;SDS011;5770;44.504;11.346;2023-01-24T09:14:39;18.13;;;11.77;;
11427;SDS011;5770;44.504;11.346;2023-01-24T09:17:06;14.93;;;11.90;;
11427;SDS011;5770;44.504;11.346;2023-01-24T09:19:33;16.80;;;13.23;;
11427;SDS011;5770;44.504;11.346;2023-01-24T09:22:00;18.52;;;13.65;;
11427;SDS011;5770;44.504;11.346;2023-01-24T09:24:27;17.38;;;13.20;;
11427;SDS011;5770;44.504;11.346;2023-01-24T09:26:56;21.60;;;14.98;;
11427;SDS011;5770;44.504;11.346;2023-01-24T09:29:23;19.05;;;14.27;;
11427;SDS011;5770;44.504;11.346;2023-01-24T09:31:50;20.88;;;15.38;;
11427;SDS011;5770;44.504;11.346;2023-01-24T09:34:20;18.65;;;13.63;;
11427;SDS011;5770;44.504;11.346;2023-01-24T09:36:47;20.63;;;13.50;;
11427;SDS011;5770;44.504;11.346;2023-01-24T09:39:15;19.40;;;12.43;;
11427;SDS011;5770;44.504;11.346;2023-01-24T09:41:44;16.08;;;12.60;;
11427;SDS011;5770;44.504;11.346;2023-01-24T09:44:22;19.67;;;12.43;;
11427;SDS011;5770;44.504;11.346;2023-01-24T09:46:54;15.90;;;12.27;;
11427;SDS011;5770;44.504;11.346;2023-01-24T09:49:22;16.27;;;12.77;;
11427;SDS011;5770;44.504;11.346;2023-01-24T09:51:52;18.20;;;13.18;;
11427;SDS011;5770;44.504;11.346;2023-01-24T09:54:23;17.40;;;12.57;;
11427;SDS011;5770;44.504;11.346;2023-01-24T09:56:57;20.02;;;13.23;;
11427;SDS011;5770;44.504;11.346;2023-01-24T09:59:29;15.55;;;13.07;;
11427;SDS011;5770;44.504;11.346;2023-01-24T10:02:02;19.20;;;13.48;;
11427;SDS011;5770;44.504;11.346;2023-01-24T10:04:41;17.27;;;12.90;;
11427;SDS011;5770;44.504;11.346;2023-01-24T10:10:28;15.90;;;12.90;;
11427;SDS011;5770;44.504;11.346;2023-01-24T10:13:06;20.77;;;12.95;;
11427;SDS011;5770;44.504;11.346;2023-01-24T10:15:41;17.65;;;12.10;;
11427;SDS011;5770;44.504;11.346;2023-01-24T10:18:24;19.67;;;12.85;;
11427;SDS011;5770;44.504;11.346;2023-01-24T10:21:11;12.70;;;11.20;;
11427;SDS011;5770;44.504;11.346;2023-01-24T10:23:42;16.10;;;11.30;;
11427;SDS011;5770;44.504;11.346;2023-01-24T10:26:14;14.13;;;11.60;;
11427;SDS011;5770;44.504;11.346;2023-01-24T10:28:45;12.10;;;10.73;;
11427;SDS011;5770;44.504;11.346;2023-01-24T10:31:16;11.45;;;10.25;;
11427;SDS011;5770;44.504;11.346;2023-01-24T10:33:45;11.65;;;9.70;;
11427;SDS011;5770;44.504;11.346;2023-01-24T10:36:14;12.95;;;10.40;;
11427;SDS011;5770;44.504;11.346;2023-01-24T10:38:45;14.93;;;10.68;;
11427;SDS011;5770;44.504;11.346;2023-01-24T10:41:14;15.60;;;10.45;;
11427;SDS011;5770;44.504;11.346;2023-01-24T10:43:42;12.90;;;10.48;;
11427;SDS011;5770;44.504;11.346;2023-01-24T10:46:13;14.23;;;9.95;;
11427;SDS011;5770;44.504;11.346;2023-01-24T10:48:44;14.63;;;9.20;;
11427;SDS011;5770;44.504;11.346;2023-01-24T10:51:13;10.85;;;8.73;;
11427;SDS011;5770;44.504;11.346;2023-01-24T10:53:41;12.70;;;8.65;;
11427;SDS011;5770;44.504;11.346;2023-01-24T10:56:12;9.77;;;8.40;;
11427;SDS011;5770;44.504;11.346;2023-01-24T10:58:41;10.32;;;7.97;;
11427;SDS011;5770;44.504;11.346;2023-01-24T11:01:14;13.02;;;9.27;;
11427;SDS011;5770;44.504;11.346;2023-01-24T11:03:45;11.80;;;8.00;;
11427;SDS011;5770;44.504;11.346;2023-01-24T11:06:23;10.25;;;8.55;;
11427;SDS011;5770;44.504;11.346;2023-01-24T11:08:55;12.23;;;8.50;;
11427;SDS011;5770;44.504;11.346;2023-01-24T11:11:23;9.52;;;8.13;;
11427;SDS011;5770;44.504;11.346;2023-01-24T11:13:53;13.25;;;7.90;;
11427;SDS011;5770;44.504;11.346;2023-01-24T11:16:22;10.00;;;8.48;;
11427;SDS011;5770;44.504;11.346;2023-01-24T11:18:52;9.80;;;7.72;;
11427;SDS011;5770;44.504;11.346;2023-01-24T11:21:21;10.57;;;7.97;;
11427;SDS011;5770;44.504;11.346;2023-01-24T11:23:58;11.57;;;9.05;;
11427;SDS011;5770;44.504;11.346;2023-01-24T11:26:28;10.88;;;8.48;;
11427;SDS011;5770;44.504;11.346;2023-01-24T11:28:56;10.43;;;8.57;;
11427;SDS011;5770;44.504;11.346;2023-01-24T11:31:29;11.77;;;8.35;;
11427;SDS011;5770;44.504;11.346;2023-01-24T11:34:11;14.75;;;8.60;;
11427;SDS011;5770;44.504;11.346;2023-01-24T11:36:43;12.07;;;8.40;;
11427;SDS011;5770;44.504;11.346;2023-01-24T11:39:19;10.45;;;8.65;;
11427;SDS011;5770;44.504;11.346;2023-01-24T11:41:53;10.65;;;8.20;;
11427;SDS011;5770;44.504;11.346;2023-01-24T11:47:15;10.10;;;8.30;;
11427;SDS011;5770;44.504;11.346;2023-01-24T11:52:47;12.10;;;8.73;;
11427;SDS011;5770;44.504;11.346;2023-01-24T11:55:21;10.98;;;9.15;;
11427;SDS011;5770;44.504;11.346;2023-01-24T11:57:57;9.27;;;8.32;;
11427;SDS011;5770;44.504;11.346;2023-01-24T12:00:39;13.25;;;8.57;;
11427;SDS011;5770;44.504;11.346;2023-01-24T12:03:20;9.00;;;8.02;;
11427;SDS011;5770;44.504;11.346;2023-01-24T12:05:59;9.93;;;8.00;;
11427;SDS011;5770;44.504;11.346;2023-01-24T12:08:31;10.98;;;8.27;;
11427;SDS011;5770;44.504;11.346;2023-01-24T12:11:16;11.10;;;8.65;;
11427;SDS011;5770;44.504;11.346;2023-01-24T12:13:51;11.65;;;8.85;;
11427;SDS011;5770;44.504;11.346;2023-01-24T12:16:26;12.55;;;9.43;;
11427;SDS011;5770;44.504;11.346;2023-01-24T12:19:02;13.48;;;8.70;;
11427;SDS011;5770;44.504;11.346;2023-01-24T12:21:52;10.75;;;9.13;;
11427;SDS011;5770;44.504;11.346;2023-01-24T12:24:23;11.18;;;9.27;;
11427;SDS011;5770;44.504;11.346;2023-01-24T12:26:51;11.30;;;9.80;;
11427;SDS011;5770;44.504;11.346;2023-01-24T12:29:23;18.33;;;11.95;;
11427;SDS011;5770;44.504;11.346;2023-01-24T12:31:56;13.00;;;10.85;;
11427;SDS011;5770;44.504;11.346;2023-01-24T12:34:32;13.65;;;11.70;;
11427;SDS011;5770;44.504;11.346;2023-01-24T12:37:02;12.85;;;11.48;;
11427;SDS011;5770;44.504;11.346;2023-01-24T12:39:35;13.45;;;11.10;;
11427;SDS011;5770;44.504;11.346;2023-01-24T12:42:05;14.55;;;12.15;;
11427;SDS011;5770;44.504;11.346;2023-01-24T12:44:37;12.52;;;11.27;;
11427;SDS011;5770;44.504;11.346;2023-01-24T12:47:11;13.00;;;10.45;;
11427;SDS011;5770;44.504;11.346;2023-01-24T12:49:45;12.02;;;10.32;;
11427;SDS011;5770;44.504;11.346;2023-01-24T12:52:20;14.23;;;9.95;;
11427;SDS011;5770;44.504;11.346;2023-01-24T12:54:51;10.63;;;9.52;;
11427;SDS011;5770;44.504;11.346;2023-01-24T12:57:22;11.27;;;9.85;;
11427;SDS011;5770;44.504;11.346;2023-01-24T12:59:51;12.55;;;9.30;;
11427;SDS011;5770;44.504;11.346;2023-01-24T13:02:22;12.93;;;10.40;;
11427;SDS011;5770;44.504;11.346;2023-01-24T13:05:15;11.68;;;10.52;;
11427;SDS011;5770;44.504;11.346;2023-01-24T13:07:47;13.18;;;11.88;;
11427;SDS011;5770;44.504;11.346;2023-01-24T13:10:21;15.05;;;12.23;;
11427;SDS011;5770;44.504;11.346;2023-01-24T13:12:51;13.32;;;11.95;;
11427;SDS011;5770;44.504;11.346;2023-01-24T13:15:20;14.43;;;12.93;;
11427;SDS011;5770;44.504;11.346;2023-01-24T13:18:01;12.65;;;11.20;;
11427;SDS011;5770;44.504;11.346;2023-01-24T13:20:39;16.52;;;13.23;;
11427;SDS011;5770;44.504;11.346;2023-01-24T13:23:21;14.23;;;12.73;;
11427;SDS011;5770;44.504;11.346;2023-01-24T13:26:00;13.73;;;12.27;;
11427;SDS011;5770;44.504;11.346;2023-01-24T13:28:31;13.80;;;12.43;;
11427;SDS011;5770;44.504;11.346;2023-01-24T13:31:06;15.80;;;14.25;;
11427;SDS011;5770;44.504;11.346;2023-01-24T13:33:37;15.68;;;14.05;;
11427;SDS011;5770;44.504;11.346;2023-01-24T13:36:05;15.88;;;14.20;;
11427;SDS011;5770;44.504;11.346;2023-01-24T13:38:35;15.30;;;13.88;;
11427;SDS011;5770;44.504;11.346;2023-01-24T13:41:12;15.90;;;13.55;;
11427;SDS011;5770;44.504;11.346;2023-01-24T13:43:57;14.73;;;13.13;;
11427;SDS011;5770;44.504;11.346;2023-01-24T13:49:15;15.30;;;12.77;;
11427;SDS011;5770;44.504;11.346;2023-01-24T13:51:46;14.32;;;12.82;;
11427;SDS011;5770;44.504;11.346;2023-01-24T13:54:21;16.33;;;12.15;;
11427;SDS011;5770;44.504;11.346;2023-01-24T13:57:10;15.15;;;12.32;;
11427;SDS011;5770;44.504;11.346;2023-01-24T13:59:56;12.60;;;11.40;;
11427;SDS011;5770;44.504;11.346;2023-01-24T14:02:29;14.30;;;11.73;;
11427;SDS011;5770;44.504;11.346;2023-01-24T14:04:57;13.00;;;11.57;;
11427;SDS011;5770;44.504;11.346;2023-01-24T14:07:26;12.52;;;11.18;;
11427;SDS011;5770;44.504;11.346;2023-01-24T14:09:56;13.00;;;10.88;;
11427;SDS011;5770;44.504;11.346;2023-01-24T14:12:26;12.30;;;10.85;;
11427;SDS011;5770;44.504;11.346;2023-01-24T14:14:58;12.18;;;10.05;;
11427;SDS011;5770;44.504;11.346;2023-01-24T14:17:26;12.20;;;10.75;;
11427;SDS011;5770;44.504;11.346;2023-01-24T14:19:55;11.55;;;9.80;;
11427;SDS011;5770;44.504;11.346;2023-01-24T14:22:32;14.68;;;10.15;;
11427;SDS011;5770;44.504;11.346;2023-01-24T14:25:11;11.07;;;9.98;;
11427;SDS011;5770;44.504;11.346;2023-01-24T14:27:48;11.63;;;10.43;;
11427;SDS011;5770;44.504;11.346;2023-01-24T14:30:30;11.60;;;10.50;;
11427;SDS011;5770;44.504;11.346;2023-01-24T14:32:59;11.88;;;10.13;;
11427;SDS011;5770;44.504;11.346;2023-01-24T14:35:31;11.70;;;10.38;;
11427;SDS011;5770;44.504;11.346;2023-01-24T14:38:10;12.45;;;11.05;;
11427;SDS011;5770;44.504;11.346;2023-01-24T14:40:38;12.02;;;10.82;;
11427;SDS011;5770;44.504;11.346;2023-01-24T14:43:08;14.23;;;11.38;;
11427;SDS011;5770;44.504;11.346;2023-01-24T14:45:36;12.40;;;11.20;;
11427;SDS011;5770;44.504;11.346;2023-01-24T14:48:06;13.15;;;11.75;;
11427;SDS011;5770;44.504;11.346;2023-01-24T14:50:35;16.10;;;11.85;;
11427;SDS011;5770;44.504;11.346;2023-01-24T14:53:04;13.02;;;11.93;;
11427;SDS011;5770;44.504;11.346;2023-01-24T14:55:48;13.50;;;11.98;;
11427;SDS011;5770;44.504;11.346;2023-01-24T14:58:22;14.18;;;11.77;;
11427;SDS011;5770;44.504;11.346;2023-01-24T15:00:50;14.35;;;11.70;;
11427;SDS011;5770;44.504;11.346;2023-01-24T15:03:19;14.20;;;11.80;;
11427;SDS011;5770;44.504;11.346;2023-01-24T15:05:49;15.63;;;11.75;;
11427;SDS011;5770;44.504;11.346;2023-01-24T15:08:16;13.05;;;11.75;;
11427;SDS011;5770;44.504;11.346;2023-01-24T15:10:44;12.98;;;11.77;;
11427;SDS011;5770;44.504;11.346;2023-01-24T15:13:17;14.85;;;11.65;;
11427;SDS011;5770;44.504;11.346;2023-01-24T15:15:46;23.58;;;11.70;;
11427;SDS011;5770;44.504;11.346;2023-01-24T15:18:23;12.10;;;10.90;;
11427;SDS011;5770;44.504;11.346;2023-01-24T15:20:52;14.98;;;11.70;;
11427;SDS011;5770;44.504;11.346;2023-01-24T15:23:20;16.17;;;12.18;;